Time;durP1;ratioP1;P1;durP2;ratioP2;P2;SDS_P1;SDS_P2;PMS_P1;PMS_P2;Temp;Humidity;BMP_temperature;BMP_pressure;BME280_temperature;BME280_humidity;BME280_pressure;Samples;Min_cycle;Max_cycle;Signal;HPM_P1;HPM_P2
2022/02/12 00:00:44;;;;;;;6.35;1.42;;;23.30;99.90;;;;;;5012587;28;20538;-66
2022/02/12 00:03:11;;;;;;;7.95;1.48;;;23.30;99.90;;;;;;5014959;28;20176;-66
2022/02/12 00:05:38;;;;;;;8.60;1.30;;;23.40;99.90;;;;;;5014477;28;20018;-67
2022/02/12 00:08:06;;;;;;;7.35;0.93;;;23.50;99.90;;;;;;5011627;28;20387;-66
2022/02/12 00:10:33;;;;;;;6.95;1.83;;;23.40;99.90;;;;;;5014880;28;20056;-66
2022/02/12 00:13:01;;;;;;;9.77;1.58;;;23.20;99.90;;;;;;5015091;28;20022;-66
2022/02/12 00:15:28;;;;;;;7.57;1.55;;;23.00;99.90;;;;;;5014963;28;20033;-66
2022/02/12 00:17:56;;;;;;;6.93;1.08;;;23.00;99.90;;;;;;5014568;28;20046;-66
2022/02/12 00:20:23;;;;;;;8.43;1.13;;;22.80;99.90;;;;;;5012636;28;20437;-66
2022/02/12 00:22:51;;;;;;;9.98;1.60;;;22.80;99.90;;;;;;5014387;28;20386;-66
2022/02/12 00:25:18;;;;;;;7.75;0.98;;;23.00;99.90;;;;;;5014958;28;20026;-66
2022/02/12 00:27:45;;;;;;;7.78;1.20;;;23.10;99.90;;;;;;5014056;28;20014;-66
2022/02/12 00:30:13;;;;;;;6.82;1.25;;;23.20;99.90;;;;;;5011869;28;20038;-66
2022/02/12 00:32:40;;;;;;;7.28;0.95;;;23.40;99.90;;;;;;5007857;28;20084;-66
2022/02/12 00:35:07;;;;;;;5.47;0.82;;;23.80;99.90;;;;;;5006301;28;20033;-67
2022/02/12 00:37:35;;;;;;;6.03;0.93;;;24.30;99.90;;;;;;5004403;28;20029;-67
2022/02/12 00:40:02;;;;;;;3.80;0.90;;;24.30;99.90;;;;;;5009481;28;20168;-67
2022/02/12 00:42:30;;;;;;;8.35;1.25;;;24.30;99.90;;;;;;5019132;28;20056;-67
2022/02/12 00:44:57;;;;;;;8.48;0.80;;;24.30;99.90;;;;;;5010270;28;20076;-67
2022/02/12 00:47:24;;;;;;;8.93;0.95;;;24.40;99.90;;;;;;5013728;28;20421;-67
2022/02/12 00:49:52;;;;;;;6.57;0.90;;;24.70;99.90;;;;;;5013427;28;20026;-67
2022/02/12 00:52:19;;;;;;;6.57;1.15;;;24.70;99.90;;;;;;5013484;28;20022;-67
2022/02/12 00:54:46;;;;;;;7.50;0.98;;;24.50;99.90;;;;;;5011238;28;20084;-67
2022/02/12 00:57:13;;;;;;;6.88;1.33;;;24.00;99.90;;;;;;5014613;28;20072;-67
2022/02/12 00:59:41;;;;;;;11.85;1.52;;;23.70;99.90;;;;;;5026996;28;20481;-67
2022/02/12 01:02:08;;;;;;;12.88;1.50;;;23.70;99.90;;;;;;5011175;28;20038;-68
2022/02/12 01:04:36;;;;;;;6.20;1.15;;;23.70;99.90;;;;;;5011269;28;20363;-68
2022/02/12 01:07:03;;;;;;;10.05;1.10;;;23.70;99.90;;;;;;5021083;28;20033;-68
2022/02/12 01:09:31;;;;;;;9.25;1.75;;;24.00;99.90;;;;;;5013836;28;20076;-68
2022/02/12 01:12:01;;;;;;;13.90;0.98;;;24.50;99.90;;;;;;5012270;28;20088;-67
2022/02/12 01:14:29;;;;;;;5.90;0.85;;;24.90;99.90;;;;;;5009558;28;20042;-67
2022/02/12 01:16:56;;;;;;;8.10;1.10;;;24.90;99.90;;;;;;5010142;28;20042;-67
2022/02/12 01:19:23;;;;;;;6.03;0.70;;;24.90;99.90;;;;;;5011964;28;20462;-68
2022/02/12 01:21:51;;;;;;;9.07;1.00;;;24.80;99.90;;;;;;5021461;28;20030;-68
2022/02/12 01:24:18;;;;;;;4.20;0.70;;;24.40;99.90;;;;;;5026768;28;20038;-67
2022/02/12 01:26:45;;;;;;;7.57;1.00;;;24.20;99.90;;;;;;5010356;28;20103;-67
2022/02/12 01:29:13;;;;;;;6.38;0.80;;;23.90;99.90;;;;;;5010487;28;20119;-65
2022/02/12 01:31:40;;;;;;;7.70;1.95;;;23.70;99.90;;;;;;5021811;28;20041;-66
2022/02/12 01:34:07;;;;;;;8.52;1.50;;;23.60;99.90;;;;;;5019598;28;20125;-65
2022/02/12 01:36:35;;;;;;;10.98;1.40;;;23.60;99.90;;;;;;5010430;28;20492;-65
2022/02/12 01:39:02;;;;;;;6.93;1.25;;;23.60;99.90;;;;;;5012249;28;20038;-65
2022/02/12 01:41:29;;;;;;;8.00;1.23;;;23.70;99.90;;;;;;5017064;28;20028;-65
2022/02/12 01:43:57;;;;;;;11.45;1.98;;;23.60;99.90;;;;;;5012044;28;20027;-65
2022/02/12 01:46:24;;;;;;;5.75;0.93;;;23.50;99.90;;;;;;4993784;28;20030;-65
2022/02/12 01:48:51;;;;;;;7.35;0.90;;;23.40;99.90;;;;;;5004595;28;20038;-66
2022/02/12 01:51:22;;;;;;;8.85;1.60;;;23.50;99.90;;;;;;5021322;28;20084;-66
2022/02/12 01:53:49;;;;;;;5.03;1.23;;;23.40;99.90;;;;;;5005870;28;20091;-66
2022/02/12 01:56:19;;;;;;;8.63;2.13;;;23.40;99.90;;;;;;4996621;28;20050;-66
2022/02/12 01:58:47;;;;;;;9.80;1.60;;;23.40;99.90;;;;;;5007744;28;20461;-65
2022/02/12 02:01:14;;;;;;;10.48;1.77;;;23.20;99.90;;;;;;5012062;28;20026;-66
2022/02/12 02:03:41;;;;;;;12.38;1.67;;;23.10;99.90;;;;;;5010761;28;20026;-66
2022/02/12 02:06:09;;;;;;;8.82;1.50;;;23.00;99.90;;;;;;5011415;28;20029;-66
2022/02/12 02:08:36;;;;;;;5.03;0.90;;;22.50;99.90;;;;;;5016758;28;20060;-66
2022/02/12 02:11:03;;;;;;;10.57;1.88;;;22.10;99.90;;;;;;5008345;28;20042;-66
2022/02/12 02:13:31;;;;;;;5.95;1.35;;;21.60;99.90;;;;;;5006602;28;20025;-66
2022/02/12 02:15:58;;;;;;;8.18;1.58;;;21.40;99.90;;;;;;5010679;28;20464;-66
2022/02/12 02:18:25;;;;;;;5.90;1.60;;;21.30;99.90;;;;;;5007182;28;20077;-66
2022/02/12 02:20:53;;;;;;;7.25;1.40;;;21.20;99.90;;;;;;5008261;28;20048;-66
2022/02/12 02:23:20;;;;;;;8.05;1.73;;;20.90;99.90;;;;;;5011578;28;20026;-67
2022/02/12 02:25:47;;;;;;;8.20;1.88;;;20.50;99.90;;;;;;5006744;28;20085;-67
2022/02/12 02:28:14;;;;;;;11.43;1.90;;;20.40;99.90;;;;;;5009818;28;20033;-66
2022/02/12 02:30:42;;;;;;;12.55;2.42;;;20.20;99.90;;;;;;5010304;28;20125;-67
2022/02/12 02:33:09;;;;;;;13.10;2.35;;;20.20;99.90;;;;;;5006711;28;20048;-67
2022/02/12 02:35:37;;;;;;;7.00;1.85;;;20.20;99.90;;;;;;5017920;28;20468;-66
2022/02/12 02:38:07;;;;;;;11.30;2.15;;;20.20;99.90;;;;;;5005468;28;20022;-67
2022/02/12 02:40:34;;;;;;;13.15;2.58;;;20.20;99.90;;;;;;5005141;28;20026;-67
2022/02/12 02:43:02;;;;;;;15.45;2.75;;;20.30;99.90;;;;;;5007024;28;20057;-67
2022/02/12 02:45:29;;;;;;;16.70;3.75;;;20.40;99.90;;;;;;5011355;28;20034;-66
2022/02/12 02:48:01;;;;;;;10.30;2.03;;;20.40;99.90;;;;;;5008307;28;20040;-66
2022/02/12 02:56:02;;;;;;;11.05;2.05;;;20.10;99.90;;;;;;5007719;28;20148;-65
2022/02/12 02:58:36;;;;;;;10.82;1.50;;;20.10;99.90;;;;;;5008877;28;20474;-65
2022/02/12 03:01:09;;;;;;;13.30;2.72;;;20.10;99.90;;;;;;5017797;28;20069;-66
2022/02/12 03:03:37;;;;;;;13.10;2.55;;;20.30;99.90;;;;;;5009016;28;20069;-66
2022/02/12 03:06:09;;;;;;;10.45;1.42;;;20.30;99.90;;;;;;5008014;28;20065;-66
2022/02/12 03:08:36;;;;;;;13.23;2.38;;;20.20;99.90;;;;;;5017504;28;20022;-66
2022/02/12 03:11:05;;;;;;;8.77;2.25;;;20.10;99.90;;;;;;5008170;28;20030;-66
2022/02/12 03:13:33;;;;;;;12.10;3.63;;;20.10;99.90;;;;;;5001445;28;20406;-66
2022/02/12 03:16:01;;;;;;;11.43;4.70;;;20.10;99.90;;;;;;5008997;28;20101;-66
2022/02/12 03:18:28;;;;;;;14.45;5.60;;;20.10;99.90;;;;;;5010921;28;20080;-66
2022/02/12 03:20:55;;;;;;;8.80;2.67;;;20.10;99.90;;;;;;5019104;28;20104;-66
2022/02/12 03:23:23;;;;;;;11.07;2.58;;;20.10;99.90;;;;;;5022730;28;20033;-66
2022/02/12 03:25:50;;;;;;;10.70;2.53;;;20.10;99.90;;;;;;5018282;28;20480;-66
2022/02/12 03:28:17;;;;;;;13.88;2.55;;;20.00;99.90;;;;;;5008416;28;20018;-67
2022/02/12 03:30:48;;;;;;;9.02;2.17;;;19.90;99.90;;;;;;5007262;28;20026;-66
2022/02/12 03:33:17;;;;;;;14.40;3.28;;;19.80;99.90;;;;;;5008968;28;20371;-66
2022/02/12 03:35:46;;;;;;;10.93;1.92;;;19.90;99.90;;;;;;5012371;28;20033;-67
2022/02/12 03:38:16;;;;;;;13.07;2.50;;;20.10;99.90;;;;;;5012946;28;20038;-67
2022/02/12 03:40:48;;;;;;;14.35;2.70;;;20.30;99.90;;;;;;5019107;28;20366;-67
2022/02/12 03:43:17;;;;;;;16.30;2.88;;;20.40;99.90;;;;;;5016458;28;20028;-66
2022/02/12 03:45:45;;;;;;;11.85;2.10;;;20.50;99.90;;;;;;5011895;28;20477;-67
2022/02/12 03:48:13;;;;;;;11.07;2.55;;;20.50;99.90;;;;;;5021875;28;20029;-67
2022/02/12 03:50:40;;;;;;;10.07;2.08;;;20.50;99.90;;;;;;5006138;28;20382;-67
2022/02/12 03:53:09;;;;;;;17.75;9.90;;;20.60;99.90;;;;;;5019934;28;20033;-67
2022/02/12 03:55:39;;;;;;;11.43;2.72;;;20.90;99.90;;;;;;5015492;28;20029;-67
2022/02/12 03:58:09;;;;;;;9.30;1.63;;;20.70;99.90;;;;;;5017118;28;20021;-66
2022/02/12 04:00:38;;;;;;;13.75;2.67;;;20.60;99.90;;;;;;5010379;28;20681;-67
2022/02/12 04:03:06;;;;;;;9.88;2.72;;;20.30;99.90;;;;;;5008652;28;20025;-66
2022/02/12 04:05:34;;;;;;;12.45;3.10;;;20.40;99.90;;;;;;5009942;28;20033;-66
2022/02/12 04:08:02;;;;;;;9.77;2.13;;;20.40;99.90;;;;;;5009852;28;20042;-67
2022/02/12 04:10:29;;;;;;;9.88;2.20;;;20.40;99.90;;;;;;5014882;28;20022;-66
2022/02/12 04:12:59;;;;;;;7.25;1.95;;;20.30;99.90;;;;;;5006575;28;20034;-66
2022/02/12 04:15:26;;;;;;;7.47;1.95;;;20.20;99.90;;;;;;5008752;28;20026;-66
2022/02/12 04:17:54;;;;;;;8.10;1.48;;;20.20;99.90;;;;;;5028440;28;20524;-66
2022/02/12 04:20:24;;;;;;;8.70;1.77;;;20.00;99.90;;;;;;5028022;28;20048;-65
2022/02/12 04:22:52;;;;;;;7.72;1.85;;;20.00;99.90;;;;;;5031535;28;20025;-65
2022/02/12 04:25:22;;;;;;;7.80;1.75;;;20.10;99.90;;;;;;5002610;28;20125;-65
2022/02/12 04:27:49;;;;;;;9.23;1.90;;;20.00;99.90;;;;;;5016696;28;20046;-66
2022/02/12 04:30:17;;;;;;;9.00;2.10;;;20.10;99.90;;;;;;5013302;28;20449;-65
2022/02/12 04:32:45;;;;;;;10.90;2.05;;;20.30;99.90;;;;;;5016708;28;20049;-66
2022/02/12 04:35:13;;;;;;;7.00;1.75;;;20.30;99.90;;;;;;5020499;28;20508;-65
2022/02/12 04:37:41;;;;;;;11.93;2.33;;;20.30;99.90;;;;;;5015574;28;20034;-65
2022/02/12 04:40:10;;;;;;;9.32;1.33;;;20.20;99.90;;;;;;5021034;28;20030;-65
2022/02/12 04:42:37;;;;;;;4.03;1.05;;;20.10;99.90;;;;;;5023283;28;20478;-65
2022/02/12 04:45:05;;;;;;;6.30;1.45;;;20.00;99.90;;;;;;5012902;28;20497;-66
2022/02/12 04:47:32;;;;;;;7.60;1.20;;;20.00;99.90;;;;;;5014713;28;20026;-65
2022/02/12 04:50:00;;;;;;;8.05;1.90;;;20.10;99.90;;;;;;5006068;28;20104;-65
2022/02/12 04:52:27;;;;;;;11.38;2.17;;;20.30;99.90;;;;;;5006917;28;20490;-64
2022/02/12 04:54:54;;;;;;;9.48;2.65;;;20.30;99.90;;;;;;5007744;28;20065;-65
2022/02/12 04:57:21;;;;;;;12.32;2.25;;;20.20;99.90;;;;;;5012234;28;20030;-65
2022/02/12 04:59:49;;;;;;;11.60;2.00;;;20.20;99.90;;;;;;5013489;28;20508;-65
2022/02/12 05:02:16;;;;;;;9.30;2.17;;;20.00;99.90;;;;;;5008569;28;20040;-66
2022/02/12 05:04:43;;;;;;;7.80;1.95;;;20.00;99.90;;;;;;5014508;28;20021;-65
2022/02/12 05:07:10;;;;;;;10.75;1.73;;;20.10;99.90;;;;;;5012605;28;20037;-65
2022/02/12 05:09:38;;;;;;;11.38;1.45;;;19.90;99.90;;;;;;5006566;28;20032;-66
2022/02/12 05:12:06;;;;;;;8.38;2.75;;;19.90;99.90;;;;;;5006682;28;20022;-64
2022/02/12 05:14:34;;;;;;;8.40;1.83;;;19.70;99.90;;;;;;5017384;28;20075;-65
2022/02/12 05:17:02;;;;;;;8.20;1.70;;;19.80;99.90;;;;;;5015165;28;20046;-65
2022/02/12 05:19:29;;;;;;;7.53;1.52;;;19.80;99.90;;;;;;5018798;28;20168;-65
2022/02/12 05:21:57;;;;;;;7.57;1.98;;;19.80;99.90;;;;;;5014792;28;20060;-65
2022/02/12 05:24:25;;;;;;;10.10;1.92;;;19.90;99.90;;;;;;5008959;28;20038;-66
2022/02/12 05:26:52;;;;;;;12.38;2.53;;;19.80;99.90;;;;;;5007431;28;20113;-66
2022/02/12 05:29:19;;;;;;;8.48;2.47;;;19.70;99.90;;;;;;5004365;28;20501;-66
2022/02/12 05:31:47;;;;;;;9.20;2.25;;;19.70;99.90;;;;;;5006711;28;20038;-66
2022/02/12 05:34:14;;;;;;;11.55;2.10;;;19.60;99.90;;;;;;5013566;28;20036;-65
2022/02/12 05:36:41;;;;;;;9.95;1.65;;;19.60;99.90;;;;;;5009479;28;20022;-65
2022/02/12 05:39:09;;;;;;;7.90;1.52;;;19.60;99.90;;;;;;5015629;28;20022;-65
2022/02/12 05:41:37;;;;;;;9.07;1.75;;;19.70;99.90;;;;;;5011476;28;20139;-65
2022/02/12 05:44:06;;;;;;;11.57;1.95;;;19.70;99.90;;;;;;5011139;28;20029;-65
2022/02/12 05:46:33;;;;;;;7.82;1.90;;;19.70;99.90;;;;;;5012101;28;20029;-65
2022/02/12 05:49:01;;;;;;;18.60;3.42;;;19.70;99.90;;;;;;5011480;28;20030;-65
2022/02/12 05:51:31;;;;;;;16.15;2.92;;;19.60;99.90;;;;;;5015700;28;20033;-66
2022/02/12 05:54:03;;;;;;;9.02;2.05;;;19.50;99.90;;;;;;5011722;28;20034;-66
2022/02/12 05:56:32;;;;;;;12.30;2.72;;;19.50;99.90;;;;;;5012885;28;20085;-66
2022/02/12 05:59:02;;;;;;;14.00;2.47;;;19.50;99.90;;;;;;5005839;28;20110;-66
2022/02/12 06:01:29;;;;;;;10.70;1.95;;;19.70;99.90;;;;;;5008666;28;20026;-66
2022/02/12 06:03:56;;;;;;;9.93;2.45;;;19.70;99.90;;;;;;5008351;28;20041;-66
2022/02/12 06:06:24;;;;;;;10.48;2.03;;;19.70;99.90;;;;;;5012640;28;20026;-66
2022/02/12 06:08:54;;;;;;;17.98;2.70;;;19.80;99.90;;;;;;5001805;28;20022;-67
2022/02/12 06:11:21;;;;;;;13.93;2.40;;;19.90;99.90;;;;;;5008262;28;20040;-66
2022/02/12 06:13:52;;;;;;;11.23;2.20;;;19.90;99.90;;;;;;5002857;28;20061;-67
2022/02/12 06:16:23;;;;;;;11.38;2.03;;;20.10;99.90;;;;;;5007505;28;20034;-67
2022/02/12 06:18:51;;;;;;;9.32;1.70;;;20.10;99.90;;;;;;5002137;28;20049;-67
2022/02/12 06:21:18;;;;;;;14.18;2.25;;;20.10;99.90;;;;;;5005514;28;20030;-67
2022/02/12 06:23:48;;;;;;;9.88;1.77;;;20.20;99.90;;;;;;5027658;28;20034;-67
2022/02/12 06:26:16;;;;;;;9.80;2.75;;;20.40;99.90;;;;;;5010401;28;20041;-67
2022/02/12 06:28:43;;;;;;;10.38;2.53;;;20.60;99.90;;;;;;5008125;28;20134;-67
2022/02/12 06:31:10;;;;;;;10.55;2.25;;;20.40;99.90;;;;;;5007497;28;20054;-67
2022/02/12 06:33:37;;;;;;;9.38;1.50;;;20.50;99.90;;;;;;5006931;28;20097;-67
2022/02/12 06:36:05;;;;;;;15.82;2.38;;;20.50;99.90;;;;;;5009325;28;20038;-67
2022/02/12 06:38:32;;;;;;;11.75;2.33;;;20.40;99.90;;;;;;5003401;28;20034;-66
2022/02/12 06:41:00;;;;;;;10.98;2.83;;;20.40;99.90;;;;;;5005316;28;20102;-67
2022/02/12 06:43:27;;;;;;;10.63;2.80;;;20.50;99.90;;;;;;5007474;28;20118;-67
2022/02/12 06:45:54;;;;;;;15.20;2.97;;;20.40;99.90;;;;;;5006031;28;20088;-67
2022/02/12 06:48:22;;;;;;;8.38;1.77;;;20.20;99.90;;;;;;5003707;28;20385;-67
2022/02/12 06:50:49;;;;;;;15.07;2.75;;;20.10;99.90;;;;;;5005281;28;20547;-66
2022/02/12 06:53:16;;;;;;;11.57;2.22;;;19.90;99.90;;;;;;5014757;28;20124;-66
2022/02/12 06:55:44;;;;;;;8.40;2.28;;;19.70;99.90;;;;;;5000156;28;20022;-66
2022/02/12 06:58:11;;;;;;;11.13;2.22;;;19.70;99.90;;;;;;5004741;28;20030;-65
2022/02/12 07:00:39;;;;;;;13.77;2.55;;;19.50;99.90;;;;;;5009127;28;20037;-65
2022/02/12 07:03:06;;;;;;;9.00;1.27;;;19.20;99.90;;;;;;5007005;28;20083;-65
2022/02/12 07:05:35;;;;;;;13.38;3.55;;;19.20;99.90;;;;;;5003032;28;20081;-66
2022/02/12 07:08:02;;;;;;;10.52;2.38;;;19.20;99.90;;;;;;5003219;28;20494;-66
2022/02/12 07:10:32;;;;;;;9.43;2.92;;;19.30;99.90;;;;;;5020853;28;20029;-66
2022/02/12 07:12:59;;;;;;;13.73;2.85;;;19.40;99.90;;;;;;5017006;28;20030;-66
2022/02/12 07:15:26;;;;;;;8.15;1.60;;;19.40;99.90;;;;;;5012783;28;20026;-65
2022/02/12 07:17:54;;;;;;;12.30;3.05;;;19.30;99.90;;;;;;5006541;28;20042;-66
2022/02/12 07:20:21;;;;;;;14.98;2.63;;;19.20;99.90;;;;;;5008965;28;20021;-66
2022/02/12 07:22:49;;;;;;;9.57;2.22;;;19.20;99.90;;;;;;5006835;28;20030;-65
2022/02/12 07:25:17;;;;;;;13.18;2.22;;;19.20;99.90;;;;;;5008138;28;20025;-65
2022/02/12 07:27:45;;;;;;;8.52;1.88;;;19.10;99.90;;;;;;5011682;28;20037;-65
2022/02/12 07:30:16;;;;;;;10.60;2.08;;;19.10;99.90;;;;;;5017925;28;20030;-65
2022/02/12 07:32:44;;;;;;;6.93;2.15;;;19.20;99.90;;;;;;5011911;28;20033;-66
2022/02/12 07:35:14;;;;;;;13.18;2.80;;;19.20;99.90;;;;;;5016408;28;20118;-65
2022/02/12 07:37:43;;;;;;;8.88;2.03;;;19.20;99.90;;;;;;5011427;28;20030;-66
2022/02/12 07:40:13;;;;;;;14.70;5.45;;;19.30;99.90;;;;;;5007187;28;20025;-65
2022/02/12 07:42:41;;;;;;;15.40;2.22;;;19.30;99.90;;;;;;5007205;28;20612;-66
2022/02/12 07:45:09;;;;;;;10.70;1.83;;;19.30;99.90;;;;;;5013824;28;20034;-67
2022/02/12 07:47:40;;;;;;;7.45;2.13;;;19.30;99.90;;;;;;5013564;28;20030;-66
2022/02/12 07:50:09;;;;;;;11.18;2.38;;;19.40;99.90;;;;;;5019359;28;20030;-65
2022/02/12 07:52:37;;;;;;;14.65;3.00;;;19.40;99.90;;;;;;5014320;28;20032;-66
2022/02/12 07:55:05;;;;;;;14.45;2.85;;;19.40;99.90;;;;;;5011912;28;20038;-66
2022/02/12 07:57:32;;;;;;;10.20;2.30;;;19.40;99.90;;;;;;4999644;28;20026;-66
2022/02/12 08:00:00;;;;;;;14.43;3.05;;;19.40;99.90;;;;;;5028083;28;20100;-66
2022/02/12 08:02:27;;;;;;;14.95;2.40;;;19.30;99.90;;;;;;5021995;28;20057;-67
2022/02/12 08:04:54;;;;;;;13.75;2.60;;;19.30;99.90;;;;;;5018191;28;20030;-65
2022/02/12 08:07:29;;;;;;;9.90;2.35;;;19.30;99.90;;;;;;5013885;28;20039;-65
2022/02/12 08:12:56;;;;;;;10.77;2.15;;;19.40;99.90;;;;;;5013307;28;20079;-65
2022/02/12 08:15:24;;;;;;;8.90;1.88;;;19.40;99.90;;;;;;5009098;28;20026;-65
2022/02/12 08:17:51;;;;;;;10.60;2.42;;;19.40;99.90;;;;;;5015783;28;20414;-65
2022/02/12 08:20:18;;;;;;;9.40;2.38;;;19.50;99.90;;;;;;5013653;28;20045;-65
2022/02/12 08:22:46;;;;;;;7.63;2.45;;;19.50;99.90;;;;;;5012539;28;20026;-65
2022/02/12 08:25:13;;;;;;;9.93;2.00;;;19.40;99.90;;;;;;5006258;28;20039;-65
2022/02/12 08:27:41;;;;;;;13.30;2.33;;;19.30;99.90;;;;;;5003680;28;20034;-66
2022/02/12 08:30:09;;;;;;;9.73;1.45;;;19.30;99.90;;;;;;5011972;28;20038;-65
2022/02/12 08:32:41;;;;;;;14.65;6.32;;;19.30;99.90;;;;;;5012172;28;20046;-65
2022/02/12 08:35:13;;;;;;;31.60;12.98;;;19.20;99.90;;;;;;5012265;28;20450;-65
2022/02/12 08:37:42;;;;;;;18.55;10.05;;;19.20;99.90;;;;;;5015342;28;20055;-65
2022/02/12 08:40:11;;;;;;;22.30;7.68;;;19.20;99.90;;;;;;5014828;28;20030;-65
2022/02/12 08:42:41;;;;;;;12.25;3.40;;;19.20;99.90;;;;;;5021402;28;20095;-65
2022/02/12 08:45:09;;;;;;;12.10;3.22;;;19.20;99.90;;;;;;5013773;28;20037;-65
2022/02/12 08:47:37;;;;;;;12.38;4.20;;;19.10;99.90;;;;;;5009815;28;20028;-65
2022/02/12 08:50:08;;;;;;;13.13;3.33;;;19.00;99.90;;;;;;5024126;28;20057;-65
2022/02/12 08:52:41;;;;;;;14.10;3.75;;;18.90;99.90;;;;;;5012192;28;20034;-65
2022/02/12 08:55:09;;;;;;;17.83;4.90;;;18.80;99.90;;;;;;5012733;28;20046;-66
2022/02/12 08:57:37;;;;;;;12.18;2.92;;;18.90;99.90;;;;;;5013108;28;20029;-66
2022/02/12 09:00:07;;;;;;;9.23;2.55;;;18.80;99.90;;;;;;5022856;28;20505;-66
2022/02/12 09:02:34;;;;;;;6.72;1.88;;;18.80;99.90;;;;;;5020940;28;20109;-65
2022/02/12 09:05:02;;;;;;;7.22;2.05;;;18.80;99.90;;;;;;5009852;28;20605;-65
2022/02/12 09:07:29;;;;;;;6.70;1.65;;;18.80;99.90;;;;;;5013916;28;20088;-65
2022/02/12 09:09:58;;;;;;;8.68;2.08;;;18.60;99.90;;;;;;5021160;28;20079;-65
2022/02/12 09:12:26;;;;;;;7.07;2.20;;;18.60;99.90;;;;;;5030575;28;20049;-65
2022/02/12 09:14:53;;;;;;;5.97;1.50;;;18.50;99.90;;;;;;5018268;28;20040;-65
2022/02/12 09:17:21;;;;;;;6.63;1.70;;;18.40;99.90;;;;;;5022032;28;20050;-65
2022/02/12 09:19:48;;;;;;;4.35;1.35;;;18.50;99.90;;;;;;5025562;28;20033;-65
2022/02/12 09:22:16;;;;;;;2.35;0.98;;;18.50;99.90;;;;;;5016430;28;20112;-66
2022/02/12 09:24:43;;;;;;;4.30;1.27;;;18.50;99.90;;;;;;5016160;28;20033;-65
2022/02/12 09:27:11;;;;;;;4.45;1.88;;;18.50;99.90;;;;;;5025779;28;20045;-65
2022/02/12 09:29:39;;;;;;;5.63;1.85;;;18.40;99.90;;;;;;5015925;28;20482;-66
2022/02/12 09:32:06;;;;;;;5.72;1.60;;;18.40;99.90;;;;;;5012347;28;20030;-66
2022/02/12 09:34:34;;;;;;;3.70;1.20;;;18.40;99.90;;;;;;5013734;28;20037;-66
2022/02/12 09:37:01;;;;;;;4.85;1.35;;;18.40;99.90;;;;;;5022926;28;20106;-65
2022/02/12 09:39:28;;;;;;;4.82;1.50;;;18.30;99.90;;;;;;5020767;28;20030;-66
2022/02/12 09:41:58;;;;;;;7.00;2.05;;;18.30;99.90;;;;;;5026376;28;20029;-66
2022/02/12 09:44:25;;;;;;;5.43;3.40;;;18.20;99.90;;;;;;5016099;28;20053;-66
2022/02/12 09:47:18;;;;;;;6.05;2.00;;;18.20;99.90;;;;;;5011909;28;20034;-66
2022/02/12 09:49:48;;;;;;;5.90;2.20;;;18.30;99.90;;;;;;5004876;28;20041;-66
2022/02/12 09:52:18;;;;;;;7.40;1.95;;;18.30;99.90;;;;;;5022783;28;20478;-66
2022/02/12 09:54:46;;;;;;;6.97;2.25;;;18.30;99.90;;;;;;5003244;28;20030;-66
2022/02/12 09:57:13;;;;;;;5.53;2.17;;;18.30;99.90;;;;;;5014125;28;20113;-66
2022/02/12 09:59:41;;;;;;;7.35;2.10;;;18.30;99.90;;;;;;5011442;28;20029;-65
2022/02/12 10:02:16;;;;;;;5.45;1.70;;;18.30;99.90;;;;;;5017454;28;20036;-66
2022/02/12 10:04:43;;;;;;;7.97;1.90;;;18.40;99.90;;;;;;5017974;28;20068;-66
2022/02/12 10:07:25;;;;;;;5.00;2.00;;;18.40;99.90;;;;;;5013214;28;20112;-66
2022/02/12 10:10:27;;;;;;;7.25;1.92;;;18.40;99.90;;;;;;5013558;28;20068;-66
2022/02/12 10:13:08;;;;;;;9.77;2.38;;;18.30;99.90;;;;;;4978045;28;20397;-66
2022/02/12 10:15:36;;;;;;;5.97;1.80;;;18.30;99.90;;;;;;5008393;28;20378;-67
2022/02/12 10:18:03;;;;;;;5.15;1.92;;;18.40;99.90;;;;;;5007330;28;20406;-66
2022/02/12 10:20:36;;;;;;;9.38;2.67;;;18.40;99.90;;;;;;5014264;28;20459;-66
2022/02/12 10:23:13;;;;;;;6.53;1.63;;;18.30;99.90;;;;;;5012328;28;20482;-66
2022/02/12 10:25:42;;;;;;;4.40;1.50;;;18.30;99.90;;;;;;5003040;28;20026;-67
2022/02/12 10:28:12;;;;;;;4.45;1.83;;;18.30;99.90;;;;;;5005366;28;20025;-67
2022/02/12 10:30:40;;;;;;;4.63;1.88;;;18.30;99.90;;;;;;5021062;28;20030;-67
2022/02/12 10:33:11;;;;;;;7.03;1.80;;;18.30;99.90;;;;;;5024678;28;20105;-66
2022/02/12 10:35:40;;;;;;;5.35;2.38;;;18.20;99.90;;;;;;4999560;28;20067;-66
2022/02/12 10:38:16;;;;;;;9.50;2.58;;;18.20;99.90;;;;;;5012910;28;20026;-66
2022/02/12 10:41:03;;;;;;;8.23;2.30;;;18.20;99.90;;;;;;5012872;28;20429;-66
2022/02/12 10:43:30;;;;;;;4.75;1.80;;;18.20;99.90;;;;;;5011271;28;20033;-66
2022/02/12 10:45:57;;;;;;;5.20;2.67;;;18.10;99.90;;;;;;4997859;28;20022;-66
2022/02/12 10:48:29;;;;;;;4.53;1.55;;;18.20;99.90;;;;;;5013365;28;20394;-67
2022/02/12 10:51:00;;;;;;;6.75;1.70;;;18.20;99.90;;;;;;5013684;28;20028;-67
2022/02/12 10:53:28;;;;;;;6.80;1.40;;;18.30;99.90;;;;;;5005018;28;20030;-67
2022/02/12 10:56:04;;;;;;;3.92;1.33;;;18.20;99.90;;;;;;5005208;28;20026;-67
2022/02/12 10:58:34;;;;;;;7.78;1.45;;;18.30;99.90;;;;;;5006657;28;20382;-66
2022/02/12 11:01:03;;;;;;;8.57;2.38;;;18.30;99.90;;;;;;5028502;28;20038;-66
2022/02/12 11:03:34;;;;;;;6.13;1.60;;;18.30;99.90;;;;;;5024722;28;20030;-66
2022/02/12 11:06:02;;;;;;;6.30;1.88;;;18.20;99.90;;;;;;5002159;28;20513;-66
2022/02/12 11:08:30;;;;;;;8.05;2.05;;;18.30;99.90;;;;;;5005269;28;20096;-66
2022/02/12 11:11:00;;;;;;;6.47;1.45;;;18.30;99.90;;;;;;5017062;28;20029;-67
2022/02/12 11:13:29;;;;;;;7.88;1.52;;;18.20;99.90;;;;;;5018165;28;20030;-66
2022/02/12 11:15:56;;;;;;;8.95;2.45;;;18.20;99.90;;;;;;5014079;28;20088;-66
2022/02/12 11:18:25;;;;;;;7.93;2.53;;;18.20;99.90;;;;;;5005989;28;20461;-65
2022/02/12 11:20:55;;;;;;;8.02;2.90;;;18.20;99.90;;;;;;5015914;28;20033;-65
2022/02/12 11:23:27;;;;;;;11.77;3.13;;;18.20;99.90;;;;;;5012250;28;20026;-66
2022/02/12 11:26:15;;;;;;;7.13;2.08;;;18.20;99.90;;;;;;5025206;28;20088;-64
2022/02/12 11:28:43;;;;;;;10.18;2.63;;;18.20;99.90;;;;;;5012169;28;20041;-67
2022/02/12 11:31:18;;;;;;;11.13;2.35;;;18.10;99.90;;;;;;5018024;28;20091;-66
2022/02/12 11:34:04;;;;;;;11.48;2.47;;;18.10;99.90;;;;;;5010539;28;20038;-66
2022/02/12 11:36:32;;;;;;;10.38;2.35;;;18.20;99.90;;;;;;5006280;28;20444;-66
2022/02/12 11:39:18;;;;;;;6.88;2.13;;;18.10;99.90;;;;;;5011894;28;20050;-65
2022/02/12 11:41:47;;;;;;;13.57;3.22;;;18.10;99.90;;;;;;5005139;28;20381;-66
2022/02/12 11:44:41;;;;;;;16.25;2.85;;;18.10;99.90;;;;;;5008893;28;20418;-66
2022/02/12 11:47:09;;;;;;;10.80;2.00;;;18.10;99.90;;;;;;5018321;28;20018;-66
2022/02/12 11:49:39;;;;;;;9.82;2.53;;;18.10;99.90;;;;;;5015181;28;20026;-65
2022/02/12 11:52:10;;;;;;;12.45;2.28;;;18.10;99.90;;;;;;5008369;28;20106;-66
2022/02/12 11:54:47;;;;;;;16.20;3.55;;;18.20;99.90;;;;;;5011884;28;20044;-65
2022/02/12 11:57:18;;;;;;;10.40;2.65;;;18.20;99.90;;;;;;5011965;28;20140;-66
2022/02/12 11:59:46;;;;;;;8.85;2.30;;;18.30;99.90;;;;;;5002536;28;20030;-66
2022/02/12 12:02:42;;;;;;;10.68;2.92;;;18.30;99.90;;;;;;5014538;28;20494;-66
2022/02/12 12:05:20;;;;;;;11.35;2.33;;;18.30;99.90;;;;;;5014922;28;20556;-66
2022/02/12 12:08:06;;;;;;;10.15;3.25;;;18.40;99.90;;;;;;5017276;28;20032;-66
2022/02/12 12:10:56;;;;;;;12.95;2.10;;;18.40;99.90;;;;;;5021355;28;20017;-66
2022/02/12 12:13:26;;;;;;;12.18;2.35;;;18.20;99.90;;;;;;5010592;28;20562;-66
2022/02/12 12:15:58;;;;;;;9.65;2.42;;;18.30;99.90;;;;;;5014468;28;20022;-66
2022/02/12 12:18:27;;;;;;;14.75;3.30;;;18.30;99.90;;;;;;5013663;28;20088;-66
2022/02/12 12:20:55;;;;;;;11.05;2.10;;;18.30;99.90;;;;;;5010938;28;20061;-66
2022/02/12 12:23:22;;;;;;;10.15;2.40;;;18.40;99.90;;;;;;5012586;28;20034;-66
2022/02/12 12:26:06;;;;;;;13.85;2.78;;;18.40;99.90;;;;;;5013576;28;20508;-66
2022/02/12 12:28:40;;;;;;;13.65;3.20;;;18.40;99.90;;;;;;5015164;28;20022;-66
2022/02/12 12:31:10;;;;;;;10.48;2.63;;;18.40;99.90;;;;;;5020537;28;20109;-66
2022/02/12 12:33:41;;;;;;;11.75;2.10;;;18.40;99.90;;;;;;5011288;28;20032;-67
2022/02/12 12:36:16;;;;;;;15.98;2.40;;;18.40;99.90;;;;;;5014348;28;21194;-67
2022/02/12 12:38:51;;;;;;;15.63;2.83;;;18.40;99.90;;;;;;5011458;28;20504;-66
2022/02/12 12:41:32;;;;;;;13.80;2.58;;;18.40;99.90;;;;;;5019328;28;20040;-65
2022/02/12 12:44:16;;;;;;;7.30;2.00;;;18.40;99.90;;;;;;5010773;28;20033;-65
2022/02/12 12:46:45;;;;;;;7.30;2.20;;;18.50;99.90;;;;;;5007695;28;20500;-65
2022/02/12 12:49:33;;;;;;;8.88;1.92;;;18.50;99.90;;;;;;5013987;28;20762;-65
2022/02/12 12:52:02;;;;;;;7.78;2.45;;;18.50;99.90;;;;;;5011685;28;20034;-66
2022/02/12 12:54:35;;;;;;;11.15;2.60;;;18.50;99.90;;;;;;5011342;28;20113;-66
2022/02/12 12:57:04;;;;;;;19.55;2.10;;;18.40;99.90;;;;;;5014397;28;20034;-65
2022/02/12 12:59:33;;;;;;;11.88;2.22;;;18.50;99.90;;;;;;5023732;28;20489;-67
2022/02/12 13:02:07;;;;;;;10.73;1.80;;;18.50;99.90;;;;;;5014257;28;20030;-64